createdAt,value
2023-04-02T00:01:50.826Z,95.46
2023-04-02T00:07:30.844Z,96.11
2023-04-02T00:12:32.511Z,96.25
2023-04-02T00:17:34.126Z,96.70
2023-04-02T00:22:44.052Z,95.64
2023-04-02T00:27:45.930Z,95.27
2023-04-02T00:32:47.965Z,95.54
2023-04-02T00:37:49.840Z,95.72
2023-04-02T00:42:53.756Z,95.99
2023-04-02T00:47:56.348Z,96.40
2023-04-02T00:52:59.145Z,95.29
2023-04-02T00:58:01.528Z,94.69
2023-04-02T01:03:13.147Z,94.72
2023-04-02T01:08:45.526Z,95.36
2023-04-02T01:14:18.096Z,95.31
2023-04-02T01:19:19.834Z,94.76
2023-04-02T01:24:21.964Z,94.06
2023-04-02T01:29:26.444Z,94.83
2023-04-02T01:34:29.288Z,94.89
2023-04-02T01:39:46.588Z,95.33
2023-04-02T01:44:53.731Z,96.07
2023-04-02T01:50:24.280Z,96.15
2023-04-02T01:55:40.234Z,95.49
2023-04-02T02:00:46.773Z,96.61
2023-04-02T02:05:48.788Z,96.13
2023-04-02T02:10:50.924Z,96.11
2023-04-02T02:15:52.705Z,94.98
2023-04-02T02:20:55.261Z,95.40
2023-04-02T02:25:57.009Z,94.93
2023-04-02T02:31:22.584Z,94.87
2023-04-02T02:36:30.735Z,94.27
2023-04-02T02:41:36.359Z,94.41
2023-04-02T02:46:40.856Z,94.72
2023-04-02T02:51:49.164Z,94.18
2023-04-02T02:57:02.198Z,94.81
2023-04-02T03:02:07.171Z,93.67
2023-04-02T03:07:09.594Z,93.95
2023-04-02T03:12:28.746Z,94.13
2023-04-02T03:17:37.375Z,94.32
2023-04-02T03:22:47.314Z,94.32
2023-04-02T03:27:52.038Z,94.18
2023-04-02T03:32:59.308Z,93.82
2023-04-02T03:38:05.437Z,93.67
2023-04-02T03:43:25.627Z,93.56
2023-04-02T03:48:49.248Z,93.62
2023-04-02T03:53:52.088Z,93.50
2023-04-02T03:59:15.426Z,92.42
2023-04-02T04:04:19.064Z,92.92
2023-04-02T04:09:32.948Z,93.14
2023-04-02T04:14:43.982Z,92.65
2023-04-02T04:20:07.754Z,92.39
2023-04-02T04:25:40.139Z,93.17
2023-04-02T04:31:18.418Z,93.72
2023-04-02T04:36:27.825Z,95.00
2023-04-02T04:41:37.728Z,94.62
2023-04-02T04:46:46.008Z,94.50
2023-04-02T04:51:52.155Z,94.05
2023-04-02T04:57:02.554Z,94.79
2023-04-02T05:02:17.479Z,95.21
2023-04-02T05:07:31.839Z,95.37
2023-04-02T05:13:02.853Z,94.14
2023-04-02T05:18:31.691Z,94.02
2023-04-02T05:23:47.156Z,94.43
2023-04-02T05:29:17.192Z,94.05
2023-04-02T05:34:26.414Z,93.63
2023-04-02T05:39:28.530Z,94.05
2023-04-02T05:44:40.870Z,93.71
2023-04-02T05:49:55.485Z,94.24
2023-04-02T05:55:31.505Z,93.72
2023-04-02T06:00:42.584Z,94.12
2023-04-02T06:05:49.387Z,94.45
2023-04-02T06:10:55.532Z,93.68
2023-04-02T06:16:00.093Z,94.05
2023-04-02T06:21:06.312Z,94.98
2023-04-02T06:26:35.418Z,93.88
2023-04-02T06:31:58.804Z,93.10
2023-04-02T06:37:32.471Z,93.06
2023-04-02T06:42:44.540Z,92.60
2023-04-02T06:47:52.520Z,90.93
2023-04-02T06:53:16.041Z,91.18
2023-04-02T06:58:19.232Z,90.19
2023-04-02T07:03:27.311Z,90.01
2023-04-02T07:08:31.518Z,90.25
2023-04-02T07:13:33.214Z,91.06
2023-04-02T07:18:35.133Z,90.92
2023-04-02T07:23:40.495Z,91.54
2023-04-02T07:28:42.610Z,91.35
2023-04-02T07:33:45.373Z,90.12
2023-04-02T07:38:47.722Z,90.07
2023-04-02T07:43:49.600Z,88.58
2023-04-02T07:48:51.235Z,89.03
2023-04-02T07:53:56.214Z,89.00
2023-04-02T07:58:58.038Z,88.36
2023-04-02T08:03:59.723Z,88.39
2023-04-02T08:09:05.088Z,87.07
2023-04-02T08:14:06.891Z,85.90
2023-04-02T08:19:08.517Z,84.63
2023-04-02T08:24:10.341Z,84.88
2023-04-02T08:29:12.188Z,84.96
2023-04-02T08:34:13.896Z,83.20
2023-04-02T08:39:15.596Z,81.23
2023-04-02T08:44:24.802Z,81.37
2023-04-02T08:49:39.963Z,81.00
2023-04-02T08:54:43.608Z,79.82
2023-04-02T08:59:45.813Z,79.06
2023-04-02T09:04:47.949Z,79.17
2023-04-02T09:09:50.505Z,77.54
2023-04-02T09:15:00.939Z,78.45
2023-04-02T09:20:17.321Z,80.17
2023-04-02T09:25:22.561Z,80.59
2023-04-02T09:30:33.621Z,80.98
2023-04-02T09:35:56.539Z,81.34
2023-04-02T09:41:01.476Z,81.44
2023-04-02T09:46:06.335Z,80.74
2023-04-02T09:51:21.719Z,81.27
2023-04-02T09:56:25.641Z,81.20
2023-04-02T10:01:39.011Z,81.90
2023-04-02T10:06:49.861Z,81.20
2023-04-02T10:11:51.925Z,80.21
2023-04-02T10:17:05.567Z,80.05
2023-04-02T10:22:17.395Z,80.10
2023-04-02T10:27:34.269Z,80.07
2023-04-02T10:32:59.959Z,80.08
2023-04-02T10:38:15.866Z,78.58
2023-04-02T10:43:32.899Z,77.28
2023-04-02T10:48:53.163Z,78.53
2023-04-02T10:54:09.865Z,77.01
2023-04-02T10:59:21.379Z,76.85
2023-04-02T11:04:28.566Z,76.77
2023-04-02T11:09:33.944Z,77.99
2023-04-02T11:14:36.578Z,77.00
2023-04-02T11:19:38.626Z,77.13
2023-04-02T11:24:45.152Z,76.79
2023-04-02T11:29:49.538Z,77.31
2023-04-02T11:35:03.499Z,76.61
2023-04-02T11:40:11.055Z,75.98
2023-04-02T11:45:26.298Z,76.20
2023-04-02T11:50:31.072Z,76.15
2023-04-02T11:55:34.293Z,76.39
2023-04-02T12:01:08.488Z,75.16
2023-04-02T12:06:46.869Z,75.30
2023-04-02T12:11:49.920Z,73.17
2023-04-02T12:16:53.397Z,73.83
2023-04-02T12:21:55.681Z,73.37
2023-04-02T12:27:15.166Z,72.78
2023-04-02T12:32:30.054Z,72.08
2023-04-02T12:37:32.128Z,71.54
2023-04-02T12:42:37.736Z,70.47
2023-04-02T12:47:44.765Z,70.40
2023-04-02T12:52:48.727Z,70.47
2023-04-02T12:57:58.556Z,68.52
2023-04-02T13:03:01.804Z,68.59
2023-04-02T13:08:04.307Z,67.76
2023-04-02T13:13:07.645Z,67.90
2023-04-02T13:18:21.302Z,68.97
2023-04-02T13:23:30.330Z,71.08
2023-04-02T13:28:32.016Z,70.32
2023-04-02T13:33:33.721Z,70.89
2023-04-02T13:38:35.362Z,71.16
2023-04-02T13:43:37.224Z,70.97
2023-04-02T13:48:39.665Z,70.48
2023-04-02T13:53:41.462Z,71.13
2023-04-02T13:58:43.135Z,71.15
2023-04-02T14:03:45.452Z,71.29
2023-04-02T14:09:11.603Z,71.50
2023-04-02T14:14:37.915Z,71.61
2023-04-02T14:20:00.864Z,71.46
2023-04-02T14:25:08.523Z,70.91
2023-04-02T14:30:39.938Z,71.20
2023-04-02T14:35:46.613Z,70.76
2023-04-02T14:40:51.671Z,70.93
2023-04-02T14:46:01.985Z,70.65
2023-04-02T14:51:22.627Z,70.37
2023-04-02T14:56:26.786Z,70.52
2023-04-02T15:01:35.374Z,70.55
2023-04-02T15:06:43.105Z,69.74
2023-04-02T15:11:48.330Z,68.17
2023-04-02T15:16:50.008Z,68.85
2023-04-02T15:22:08.072Z,69.12
2023-04-02T15:27:48.219Z,69.40
2023-04-02T15:32:49.953Z,69.71
2023-04-02T15:38:03.723Z,69.75
2023-04-02T15:43:20.749Z,69.52
2023-04-02T15:49:08.051Z,68.73
2023-04-02T15:54:32.326Z,68.82
2023-04-02T15:59:52.374Z,69.05
2023-04-02T16:05:03.902Z,68.63
2023-04-02T16:10:39.996Z,69.84
2023-04-02T16:15:47.107Z,69.50
2023-04-02T16:20:51.059Z,69.92
2023-04-02T16:26:30.870Z,69.93
2023-04-02T16:31:40.942Z,69.69
2023-04-02T16:36:54.490Z,69.92
2023-04-02T16:42:04.672Z,68.87
2023-04-02T16:47:31.048Z,69.13
2023-04-02T16:52:54.288Z,68.94
2023-04-02T16:58:21.510Z,69.96
2023-04-02T17:03:46.928Z,69.84
2023-04-02T17:09:03.941Z,70.21
2023-04-02T17:14:12.404Z,70.32
2023-04-02T17:19:16.052Z,70.66
2023-04-02T17:24:31.358Z,71.08
2023-04-02T17:29:36.801Z,71.35
2023-04-02T17:34:38.477Z,71.52
2023-04-02T17:39:58.283Z,72.10
2023-04-02T17:45:05.020Z,72.52
2023-04-02T17:50:24.934Z,72.93
2023-04-02T17:55:48.155Z,73.21
2023-04-02T18:01:05.387Z,74.08
2023-04-02T18:06:21.320Z,74.79
2023-04-02T18:11:22.859Z,74.22
2023-04-02T18:16:50.243Z,74.58
2023-04-02T18:22:31.294Z,74.67
2023-04-02T18:28:15.142Z,74.33
2023-04-02T18:33:37.647Z,74.78
2023-04-02T18:39:11.693Z,74.46
2023-04-02T18:44:38.968Z,74.23
2023-04-02T18:49:57.796Z,74.74
2023-04-02T18:55:05.591Z,75.23
2023-04-02T19:00:21.759Z,74.46
2023-04-02T19:05:41.374Z,75.27
2023-04-02T19:10:52.742Z,75.01
2023-04-02T19:15:54.384Z,75.26
2023-04-02T19:21:07.125Z,75.66
2023-04-02T19:26:11.552Z,75.36
2023-04-02T19:31:31.948Z,75.44
2023-04-02T19:36:47.425Z,75.70
2023-04-02T19:41:53.979Z,75.52
2023-04-02T19:46:58.701Z,75.92
2023-04-02T19:52:00.706Z,75.45
2023-04-02T19:57:04.069Z,75.98
2023-04-02T20:02:15.781Z,75.47
2023-04-02T20:07:20.878Z,75.64
2023-04-02T20:12:22.538Z,74.96
2023-04-02T20:17:24.261Z,74.90
2023-04-02T20:22:26.167Z,74.69
2023-04-02T20:27:29.531Z,74.89
2023-04-02T20:32:31.322Z,74.23
2023-04-02T20:37:46.357Z,73.47
2023-04-02T20:42:49.385Z,74.11
2023-04-02T20:47:51.142Z,73.56
2023-04-02T20:52:58.156Z,73.13
2023-04-02T20:57:59.671Z,73.49
2023-04-02T21:03:01.378Z,73.09
2023-04-02T21:08:05.431Z,73.15
2023-04-02T21:13:11.657Z,72.05
2023-04-02T21:18:13.309Z,71.73
2023-04-02T21:23:20.986Z,70.35
2023-04-02T21:28:27.390Z,69.89
2023-04-02T21:33:29.722Z,69.53
2023-04-02T21:38:31.478Z,69.26
2023-04-02T21:43:33.096Z,69.26
2023-04-02T21:48:35.004Z,69.21
2023-04-02T21:53:36.866Z,69.15
2023-04-02T21:58:38.615Z,69.30
2023-04-02T22:03:41.987Z,69.36
2023-04-02T22:08:44.547Z,68.98
2023-04-02T22:13:47.785Z,69.33
2023-04-02T22:18:51.421Z,69.77
2023-04-02T22:23:53.160Z,69.18
2023-04-02T22:28:56.826Z,68.94
2023-04-02T22:33:59.643Z,69.27
2023-04-02T22:39:03.556Z,69.31
2023-04-02T22:44:05.341Z,69.77
2023-04-02T22:49:07.069Z,69.50
2023-04-02T22:54:08.691Z,69.58
2023-04-02T22:59:10.444Z,69.74
2023-04-02T23:04:12.112Z,69.64
2023-04-02T23:09:13.731Z,69.43
2023-04-02T23:14:15.397Z,69.49
2023-04-02T23:19:17.123Z,69.20
2023-04-02T23:24:18.784Z,69.07
2023-04-02T23:29:20.486Z,68.42
2023-04-02T23:34:22.128Z,68.10
2023-04-02T23:39:23.751Z,68.05
2023-04-02T23:44:25.872Z,69.23
2023-04-02T23:49:27.976Z,68.35
2023-04-02T23:54:29.605Z,68.00
2023-04-02T23:59:31.231Z,67.46
